Terminal Aerodrome Forecast
Issued by NWS

Home | Current Version | Previous Version | Text Only | Print | Product List | Glossary On
Versions: 1 2 3 4 5 6 7 8 9 10 11 12 13 14 15 16 17 18 19 20 21 22 23 24 25 26 27 28 29 30
000
FTUS43 KDLH 242100 AAA
TAFBRD
TAF AMD
KBRD 242105Z 2421/2518 17010G18KT P6SM BKN150
     FM250100 16009KT P6SM OVC100
     FM250400 17008KT 3SM -SN OVC007
     FM251400 24012KT 5SM -SN OVC010
     FM251700 27016G25KT P6SM -RASN OVC015=

USA.gov is the U.S. government's official web portal to all federal, state and local government web resources and services.